MAPA DE AEROPUERTO

INFORMACIÓN METAR y TAF

METAR FOR LELN
ADDS - METARS form results

(1054 UTC 27 November 2021)
Data provider http://aviationweather.gov/metar/data/
 
METAR text: LELN 271043Z 32006KT 280V010 0400 R23/0700N R05/0900N SN OVC004 00/00 Q1009
Conditions at: LELN (LEON/VIRGEN CAMI, ES) observed 1043 UTC 27 November 2021
Temperature: 0.0°C (32°F)
Dewpoint: 0.0°C (32°F) [RH = 100%]
Pressure (altimeter): 29.79 inches Hg (1009.0 mb)
Winds: from the NW (320 degrees) at 7 MPH (6 knots; 3.1 m/s)
Visibility: 0.25 miles (0.40 km)
Ceiling: 400 feet AGL
Clouds: overcast cloud deck at 400 feet AGL
Weather: SN  (moderate snow)

METAR text: LELN 271030Z 32006KT 280V040 0700 R23/1100U R05/1800U -SN OVC008 00/00 Q1009 RESN
Conditions at: LELN (LEON/VIRGEN CAMI, ES) observed 1030 UTC 27 November 2021
Temperature: 0.0°C (32°F)
Dewpoint: 0.0°C (32°F) [RH = 100%]
Pressure (altimeter): 29.79 inches Hg (1009.0 mb)
Winds: from the NW (320 degrees) at 7 MPH (6 knots; 3.1 m/s)
Visibility: 0.43 miles (0.69 km)
Ceiling: 800 feet AGL
Clouds: overcast cloud deck at 800 feet AGL
Weather: -SN  (light snow)

METAR text: LELN 271011Z 31007KT 260V040 0700 R23/0700D R05/1600D SN OVC008 00/00 Q1009
Conditions at: LELN (LEON/VIRGEN CAMI, ES) observed 1011 UTC 27 November 2021
Temperature: 0.0°C (32°F)
Dewpoint: 0.0°C (32°F) [RH = 100%]
Pressure (altimeter): 29.79 inches Hg (1009.0 mb)
Winds: from the NW (310 degrees) at 8 MPH (7 knots; 3.6 m/s)
Visibility: 0.43 miles (0.69 km)
Ceiling: 800 feet AGL
Clouds: overcast cloud deck at 800 feet AGL
Weather: SN  (moderate snow)

METAR text: LELN 271000Z 30007KT 280V350 7000 FEW005 BKN010 00/00 Q1009 RESN
Conditions at: LELN (LEON/VIRGEN CAMI, ES) observed 1000 UTC 27 November 2021
Temperature: 0.0°C (32°F)
Dewpoint: 0.0°C (32°F) [RH = 100%]
Pressure (altimeter): 29.79 inches Hg (1009.0 mb)
Winds: from the WNW (300 degrees) at 8 MPH (7 knots; 3.6 m/s)
Visibility: 4 miles ( 7 km)
Ceiling: 1000 feet AGL
Clouds: few clouds at 500 feet AGL
broken clouds at 1000 feet AGL
Weather: no significant weather observed at this time

Forecast for: AMD
Text: TAF AMD LELN 270945Z 2709/2809 34007KT 9999 SCT025 TX07/2713Z TN00/2802Z
Forecast period: 0900 UTC 27 November 2021 to 0900 UTC 28 November 2021
Forecast type: FROM: standard forecast or significant change
Winds: from the NNW (340 degrees) at 8 MPH (7 knots; 3.6 m/s)
Visibility: 6 or more miles (10+ km)
Ceiling: at least 12,000 feet AGL
Clouds: scattered clouds at 2500 feet AGL
Weather: no significant weather forecast for this period
Text: PROB30
Forecast period: 0900 to 2100 UTC 27 November 2021
Forecast type: TEMPORARY: The following changes expected for less than half the time period
Winds: from the NNW (340 degrees) at 17 MPH (15 knots; 7.7 m/s)
gusting to 29 MPH (25 knots; 12.9 m/s)
Visibility: 2.49 miles (4.01 km)
Ceiling: unknown
Clouds: missing
Weather: RA DZ  (moderate rain, moderate drizzle)
Text: TEMPO 2709/2721 34015G25KT 4000 RADZ
Forecast period: 0900 to 2100 UTC 27 November 2021
Forecast type: TEMPORARY: The following changes expected for less than half the time period
Visibility: 1.24 miles (2.00 km)
Ceiling: 1200 feet AGL
Clouds: broken clouds at 1200 feet AGL
Weather: SN  (moderate snow)
Text: PROB40
Forecast period: 0900 to 2100 UTC 27 November 2021
Forecast type: TEMPORARY: The following changes expected for less than half the time period
Visibility: 0.31 miles (0.50 km)
Ceiling: 500 feet AGL
Clouds: broken clouds at 500 feet AGL
Weather: SN  (moderate snow)
Text: TEMPO 2709/2721 2000 SN BKN012
Forecast period: 2100 UTC 27 November 2021 to 0900 UTC 28 November 2021
Forecast type: TEMPORARY: The following changes expected for less than half the time period
Visibility: 2.49 miles (4.01 km)
Ceiling: 1200 feet AGL
Clouds: broken clouds at 1200 feet AGL
Weather: RA SN  (moderate rain, moderate snow)